Time;durP1;ratioP1;P1;durP2;ratioP2;P2;SDS_P1;SDS_P2;PMS_P1;PMS_P2;Temp;Humidity;BMP_temperature;BMP_pressure;BME280_temperature;BME280_humidity;BME280_pressure;Samples;Min_cycle;Max_cycle;Signal;HPM_P1;HPM_P2
2021/10/10 00:00:16;;;;;;;7.32;4.85;;;;;;;;;;5074340;28;20070;-77
2021/10/10 00:02:42;;;;;;;8.18;5.28;;;;;;;;;;5073720;28;20037;-75
2021/10/10 00:05:09;;;;;;;8.73;5.63;;;;;;;;;;5073655;28;20068;-75
2021/10/10 00:07:35;;;;;;;12.73;5.55;;;;;;;;;;5073852;28;20067;-76
2021/10/10 00:10:00;;;;;;;11.82;5.10;;;;;;;;;;5073946;28;20072;-75
2021/10/10 00:12:25;;;;;;;8.73;6.07;;;;;;;;;;5073801;28;20036;-76
2021/10/10 00:14:51;;;;;;;9.63;5.88;;;;;;;;;;5074008;28;20055;-75
2021/10/10 00:17:16;;;;;;;12.43;5.68;;;;;;;;;;5073861;28;20068;-76
2021/10/10 00:19:42;;;;;;;8.85;5.47;;;;;;;;;;5073809;28;20060;-74
2021/10/10 00:22:07;;;;;;;12.02;6.55;;;;;;;;;;5073718;28;20557;-76
2021/10/10 00:24:32;;;;;;;12.90;4.85;;;;;;;;;;5073716;28;20039;-76
2021/10/10 00:26:58;;;;;;;10.32;6.90;;;;;;;;;;5073568;28;20451;-75
2021/10/10 00:29:23;;;;;;;16.58;6.70;;;;;;;;;;5073525;28;20540;-74
2021/10/10 00:31:49;;;;;;;13.15;6.82;;;;;;;;;;5073605;28;20119;-74
2021/10/10 00:34:14;;;;;;;12.18;7.07;;;;;;;;;;5080765;22;20062;-74
2021/10/10 00:36:40;;;;;;;14.90;6.10;;;;;;;;;;5073461;28;20435;-74
2021/10/10 00:39:05;;;;;;;8.65;6.03;;;;;;;;;;5073517;28;20118;-75
2021/10/10 00:41:31;;;;;;;11.20;5.50;;;;;;;;;;5073204;28;20497;-75
2021/10/10 00:43:56;;;;;;;8.45;5.50;;;;;;;;;;5073542;28;20040;-74
2021/10/10 00:46:21;;;;;;;9.63;6.00;;;;;;;;;;5073510;28;20024;-74
2021/10/10 00:48:47;;;;;;;9.52;5.55;;;;;;;;;;5073328;28;20413;-75
2021/10/10 00:51:13;;;;;;;12.20;6.40;;;;;;;;;;5072978;28;20043;-75
2021/10/10 00:53:39;;;;;;;6.72;5.18;;;;;;;;;;5073009;28;20120;-73
2021/10/10 00:56:05;;;;;;;14.10;7.13;;;;;;;;;;5054980;28;20035;-76
2021/10/10 00:58:32;;;;;;;13.50;7.00;;;;;;;;;;5073146;28;20059;-74
2021/10/10 01:00:57;;;;;;;7.80;5.32;;;;;;;;;;5073020;28;20035;-73
2021/10/10 01:03:23;;;;;;;11.35;6.40;;;;;;;;;;5073114;28;20036;-75
2021/10/10 01:05:49;;;;;;;11.40;5.80;;;;;;;;;;5072864;28;20566;-74
2021/10/10 01:08:16;;;;;;;12.95;6.47;;;;;;;;;;5072918;28;20126;-74
2021/10/10 01:10:44;;;;;;;11.68;6.30;;;;;;;;;;5072669;28;20035;-74
2021/10/10 01:13:09;;;;;;;9.23;5.72;;;;;;;;;;5072532;28;20040;-74
2021/10/10 01:15:35;;;;;;;11.60;6.82;;;;;;;;;;5072092;28;20548;-74
2021/10/10 01:18:01;;;;;;;9.15;5.60;;;;;;;;;;5072649;28;20485;-73
2021/10/10 01:20:27;;;;;;;13.88;6.28;;;;;;;;;;5072490;28;20036;-75
2021/10/10 01:22:53;;;;;;;13.10;6.68;;;;;;;;;;5072512;28;20067;-76
2021/10/10 01:25:19;;;;;;;10.82;6.82;;;;;;;;;;5072803;28;20429;-75
2021/10/10 01:27:44;;;;;;;8.48;5.72;;;;;;;;;;5072539;28;20036;-75
2021/10/10 01:30:10;;;;;;;13.18;6.43;;;;;;;;;;5072522;28;20060;-75
2021/10/10 01:32:36;;;;;;;12.73;6.43;;;;;;;;;;5072315;28;20051;-75
2021/10/10 01:35:02;;;;;;;10.50;6.63;;;;;;;;;;5072057;28;20056;-76
2021/10/10 01:37:27;;;;;;;15.00;5.90;;;;;;;;;;5071976;28;20028;-75
2021/10/10 01:39:53;;;;;;;13.60;7.57;;;;;;;;;;5072408;28;20041;-77
2021/10/10 01:42:18;;;;;;;13.98;6.75;;;;;;;;;;5054147;28;20037;-76
2021/10/10 01:44:43;;;;;;;9.80;6.97;;;;;;;;;;5071885;28;20036;-75
2021/10/10 01:47:09;;;;;;;10.48;6.82;;;;;;;;;;5071940;28;20036;-76
2021/10/10 01:49:38;;;;;;;12.48;5.65;;;;;;;;;;5071984;28;20033;-76
2021/10/10 01:52:04;;;;;;;8.75;5.75;;;;;;;;;;5071817;28;20033;-78
2021/10/10 01:54:29;;;;;;;9.50;5.82;;;;;;;;;;5071823;28;20046;-75
2021/10/10 01:56:55;;;;;;;8.95;5.75;;;;;;;;;;5071961;28;20169;-74
2021/10/10 01:59:20;;;;;;;15.35;6.72;;;;;;;;;;5071886;28;20129;-75
2021/10/10 02:01:46;;;;;;;11.50;5.75;;;;;;;;;;5071811;28;20494;-76
2021/10/10 02:04:11;;;;;;;9.07;5.75;;;;;;;;;;5071575;28;20507;-75
2021/10/10 02:06:36;;;;;;;10.48;6.18;;;;;;;;;;5071796;28;20035;-76
2021/10/10 02:09:02;;;;;;;12.70;6.13;;;;;;;;;;5071562;28;20040;-75
2021/10/10 02:11:27;;;;;;;8.40;5.78;;;;;;;;;;5071962;28;20039;-76
2021/10/10 02:13:53;;;;;;;9.70;4.05;;;;;;;;;;5071870;28;20037;-74
2021/10/10 02:16:18;;;;;;;9.65;5.75;;;;;;;;;;5071604;28;20044;-74
2021/10/10 02:18:45;;;;;;;9.98;6.10;;;;;;;;;;5071552;28;20039;-74
2021/10/10 02:21:10;;;;;;;10.60;5.93;;;;;;;;;;5071287;28;20032;-73
2021/10/10 02:23:35;;;;;;;10.88;4.90;;;;;;;;;;5071333;28;20032;-75
2021/10/10 02:26:01;;;;;;;10.32;5.38;;;;;;;;;;5052472;28;20032;-75
2021/10/10 02:28:26;;;;;;;8.93;5.78;;;;;;;;;;5071496;28;20040;-73
2021/10/10 02:30:52;;;;;;;8.60;5.95;;;;;;;;;;5071592;28;20029;-74
2021/10/10 02:33:18;;;;;;;12.65;5.45;;;;;;;;;;5071415;28;20044;-75
2021/10/10 02:35:44;;;;;;;11.55;7.07;;;;;;;;;;5070944;28;20057;-75
2021/10/10 02:38:11;;;;;;;12.05;5.93;;;;;;;;;;5071242;28;20035;-76
2021/10/10 02:40:36;;;;;;;10.45;6.28;;;;;;;;;;5071432;28;20494;-75
2021/10/10 02:43:02;;;;;;;11.32;6.78;;;;;;;;;;5071091;28;20039;-75
2021/10/10 02:45:27;;;;;;;10.77;6.13;;;;;;;;;;5071166;28;20041;-76
2021/10/10 02:47:53;;;;;;;7.30;4.90;;;;;;;;;;5071456;28;20032;-76
2021/10/10 02:50:18;;;;;;;8.18;6.57;;;;;;;;;;5071210;28;20520;-75
2021/10/10 02:52:44;;;;;;;12.10;6.60;;;;;;;;;;5071167;28;20082;-75
2021/10/10 02:55:09;;;;;;;11.20;5.38;;;;;;;;;;5071244;28;20127;-75
2021/10/10 02:57:35;;;;;;;9.48;7.43;;;;;;;;;;5071419;28;20405;-75
2021/10/10 03:00:00;;;;;;;12.38;6.22;;;;;;;;;;5071046;28;20028;-75
2021/10/10 03:02:26;;;;;;;11.30;5.60;;;;;;;;;;5071141;28;20040;-76
2021/10/10 03:04:51;;;;;;;13.35;6.50;;;;;;;;;;5071214;28;20035;-76
2021/10/10 03:07:16;;;;;;;10.95;5.72;;;;;;;;;;5070861;28;20060;-77
2021/10/10 03:09:42;;;;;;;9.40;6.47;;;;;;;;;;5071208;28;20020;-77
2021/10/10 03:12:07;;;;;;;11.85;6.18;;;;;;;;;;5071198;28;20044;-75
2021/10/10 03:14:32;;;;;;;10.25;7.18;;;;;;;;;;5070886;28;20444;-74
2021/10/10 03:16:58;;;;;;;8.95;6.07;;;;;;;;;;5073686;28;20036;-75
2021/10/10 03:19:23;;;;;;;12.35;6.78;;;;;;;;;;5071362;28;20029;-76
2021/10/10 03:21:48;;;;;;;15.88;6.68;;;;;;;;;;5071629;28;20047;-76
2021/10/10 03:24:14;;;;;;;12.27;7.38;;;;;;;;;;5082434;28;20045;-74
2021/10/10 03:26:39;;;;;;;9.57;6.13;;;;;;;;;;5084846;28;20075;-72
2021/10/10 03:29:05;;;;;;;10.90;5.35;;;;;;;;;;5087305;28;20059;-74
2021/10/10 03:31:30;;;;;;;14.18;7.93;;;;;;;;;;5072049;28;20416;-75
2021/10/10 03:33:56;;;;;;;12.43;6.60;;;;;;;;;;5071795;28;20446;-74
2021/10/10 03:36:21;;;;;;;9.93;6.20;;;;;;;;;;5071381;28;20036;-74
2021/10/10 03:38:46;;;;;;;7.78;5.60;;;;;;;;;;5074385;28;20517;-75
2021/10/10 03:41:12;;;;;;;14.27;6.57;;;;;;;;;;5074486;28;20040;-75
2021/10/10 03:43:38;;;;;;;10.98;7.20;;;;;;;;;;5056697;28;20039;-75
2021/10/10 03:46:04;;;;;;;10.10;6.55;;;;;;;;;;5074222;28;20040;-75
2021/10/10 03:48:29;;;;;;;10.48;6.68;;;;;;;;;;5074187;28;20036;-75
2021/10/10 03:50:54;;;;;;;12.65;6.43;;;;;;;;;;5056098;28;20040;-75
2021/10/10 03:53:23;;;;;;;12.93;7.07;;;;;;;;;;5074306;28;20062;-73
2021/10/10 03:55:51;;;;;;;14.68;6.70;;;;;;;;;;5056502;28;20125;-75
2021/10/10 03:58:17;;;;;;;10.85;5.30;;;;;;;;;;5056245;28;20037;-76
2021/10/10 04:00:42;;;;;;;6.95;5.78;;;;;;;;;;5074186;28;20036;-76
2021/10/10 04:03:10;;;;;;;8.95;5.85;;;;;;;;;;5073979;28;20046;-75
2021/10/10 04:08:01;;;;;;;12.70;5.95;;;;;;;;;;5074156;28;20478;-74
2021/10/10 04:10:27;;;;;;;10.80;7.15;;;;;;;;;;5073893;28;20089;-76
2021/10/10 04:12:53;;;;;;;8.35;5.28;;;;;;;;;;5056163;28;20037;-75
2021/10/10 04:15:19;;;;;;;18.52;8.80;;;;;;;;;;5073737;28;20055;-75
2021/10/10 04:17:45;;;;;;;9.77;6.47;;;;;;;;;;5073785;28;20032;-75
2021/10/10 04:20:12;;;;;;;8.13;5.35;;;;;;;;;;5073854;28;20072;-75
2021/10/10 04:22:38;;;;;;;13.52;6.75;;;;;;;;;;5073442;28;20485;-74
2021/10/10 04:25:05;;;;;;;10.93;5.90;;;;;;;;;;5073525;28;20036;-76
2021/10/10 04:27:32;;;;;;;9.35;7.30;;;;;;;;;;5073643;28;20115;-75
2021/10/10 04:29:58;;;;;;;9.57;5.90;;;;;;;;;;5055734;28;20039;-75
2021/10/10 04:32:23;;;;;;;13.15;7.82;;;;;;;;;;5073588;28;20032;-76
2021/10/10 04:34:49;;;;;;;12.55;9.18;;;;;;;;;;5073245;28;20409;-76
2021/10/10 04:37:14;;;;;;;10.02;6.55;;;;;;;;;;5073517;28;20028;-76
2021/10/10 04:39:39;;;;;;;17.00;9.48;;;;;;;;;;5073327;28;20401;-75
2021/10/10 04:42:06;;;;;;;15.68;8.40;;;;;;;;;;5073219;28;20059;-75
2021/10/10 04:44:31;;;;;;;11.30;6.90;;;;;;;;;;5055101;28;20113;-77
2021/10/10 04:46:57;;;;;;;11.82;7.07;;;;;;;;;;5073287;28;20481;-76
2021/10/10 04:49:22;;;;;;;14.82;6.95;;;;;;;;;;5072478;28;20031;-78
2021/10/10 04:51:48;;;;;;;12.10;9.15;;;;;;;;;;5073330;28;20401;-76
2021/10/10 04:54:13;;;;;;;10.70;7.90;;;;;;;;;;5055068;28;20135;-76
2021/10/10 04:56:40;;;;;;;13.75;7.70;;;;;;;;;;5072889;28;20501;-74
2021/10/10 04:59:05;;;;;;;13.73;7.03;;;;;;;;;;5072981;28;20044;-75
2021/10/10 05:01:31;;;;;;;10.77;7.75;;;;;;;;;;5072816;28;20032;-71
2021/10/10 05:03:56;;;;;;;13.90;8.68;;;;;;;;;;5072785;28;20083;-71
2021/10/10 05:06:21;;;;;;;14.50;8.85;;;;;;;;;;5072944;28;20394;-71
2021/10/10 05:08:47;;;;;;;11.68;6.95;;;;;;;;;;5072853;28;20444;-72
2021/10/10 05:11:12;;;;;;;12.20;7.78;;;;;;;;;;5072855;28;20846;-72
2021/10/10 05:13:38;;;;;;;12.75;8.77;;;;;;;;;;5072607;28;20398;-81
2021/10/10 05:16:05;;;;;;;12.57;8.00;;;;;;;;;;5073362;28;20039;-83
2021/10/10 05:18:31;;;;;;;11.90;7.57;;;;;;;;;;5058069;28;20032;-82
2021/10/10 05:20:56;;;;;;;12.38;7.68;;;;;;;;;;5073671;28;20539;-79
2021/10/10 05:23:22;;;;;;;13.57;7.65;;;;;;;;;;5073039;28;20500;-78
2021/10/10 05:25:47;;;;;;;9.20;5.97;;;;;;;;;;5072224;28;20067;-77
2021/10/10 05:28:12;;;;;;;9.35;5.50;;;;;;;;;;5072594;28;20851;-76
2021/10/10 05:30:38;;;;;;;14.13;8.05;;;;;;;;;;5072241;28;20055;-75
2021/10/10 05:33:03;;;;;;;9.35;6.70;;;;;;;;;;5072045;28;20428;-77
2021/10/10 05:35:29;;;;;;;11.38;8.82;;;;;;;;;;5071768;28;20422;-77
2021/10/10 05:37:55;;;;;;;14.65;7.50;;;;;;;;;;5071976;28;20532;-77
2021/10/10 05:40:20;;;;;;;10.90;6.70;;;;;;;;;;5071726;28;20450;-76
2021/10/10 05:42:46;;;;;;;13.55;7.03;;;;;;;;;;5071679;28;20079;-76
2021/10/10 05:45:11;;;;;;;16.20;7.75;;;;;;;;;;5071797;28;20115;-78
2021/10/10 05:47:37;;;;;;;12.52;7.50;;;;;;;;;;5071553;28;20032;-76
2021/10/10 05:50:04;;;;;;;16.85;7.68;;;;;;;;;;5071781;28;20032;-79
2021/10/10 05:52:30;;;;;;;15.75;7.60;;;;;;;;;;5064956;28;20186;-77
2021/10/10 05:54:55;;;;;;;13.43;9.18;;;;;;;;;;5071410;28;20191;-76
2021/10/10 05:57:23;;;;;;;10.43;6.47;;;;;;;;;;5071453;28;20033;-78
2021/10/10 05:59:55;;;;;;;12.95;7.07;;;;;;;;;;5068311;28;20134;-75
2021/10/10 06:02:20;;;;;;;16.00;9.70;;;;;;;;;;5033595;28;20481;-76
2021/10/10 06:04:47;;;;;;;11.55;7.85;;;;;;;;;;5059759;28;20090;-77
2021/10/10 06:07:12;;;;;;;12.55;8.55;;;;;;;;;;5070779;28;20043;-79
2021/10/10 06:09:37;;;;;;;15.48;9.45;;;;;;;;;;5065452;28;20037;-77
2021/10/10 06:12:03;;;;;;;14.25;9.27;;;;;;;;;;5051314;28;20060;-76
2021/10/10 06:14:29;;;;;;;14.35;7.78;;;;;;;;;;5051150;28;20040;-78
2021/10/10 06:16:55;;;;;;;16.13;9.02;;;;;;;;;;5051775;28;20033;-75
2021/10/10 06:19:21;;;;;;;15.02;8.43;;;;;;;;;;5051656;28;20051;-75
2021/10/10 06:21:46;;;;;;;15.63;8.48;;;;;;;;;;5051392;28;20037;-75
2021/10/10 06:24:12;;;;;;;10.18;6.55;;;;;;;;;;5063943;28;20485;-76
2021/10/10 06:26:37;;;;;;;14.93;8.02;;;;;;;;;;5071386;28;20036;-74
2021/10/10 06:29:02;;;;;;;13.18;9.57;;;;;;;;;;5053238;28;20035;-76
2021/10/10 06:31:28;;;;;;;14.50;7.80;;;;;;;;;;5071614;28;20079;-77
2021/10/10 06:33:53;;;;;;;16.13;8.15;;;;;;;;;;5071199;28;20024;-79
2021/10/10 06:36:20;;;;;;;13.85;8.30;;;;;;;;;;5071011;28;20055;-74
2021/10/10 06:38:47;;;;;;;12.00;7.80;;;;;;;;;;5051789;28;20036;-76
2021/10/10 06:41:12;;;;;;;13.80;8.15;;;;;;;;;;5065700;28;20039;-77
2021/10/10 06:43:38;;;;;;;12.88;7.13;;;;;;;;;;5071268;28;20036;-75
2021/10/10 06:46:03;;;;;;;14.82;9.38;;;;;;;;;;5071842;28;20055;-78
2021/10/10 06:48:29;;;;;;;13.05;7.63;;;;;;;;;;5034026;28;20037;-78
2021/10/10 06:50:54;;;;;;;12.13;7.70;;;;;;;;;;5051739;28;20504;-75
2021/10/10 06:53:19;;;;;;;12.30;8.45;;;;;;;;;;5051894;28;20391;-75
2021/10/10 06:55:45;;;;;;;11.80;6.95;;;;;;;;;;5050995;28;20040;-77
2021/10/10 06:58:10;;;;;;;14.70;8.95;;;;;;;;;;5057424;28;20535;-75
2021/10/10 07:00:35;;;;;;;11.18;6.80;;;;;;;;;;5071181;28;20029;-76
2021/10/10 07:03:01;;;;;;;12.55;6.85;;;;;;;;;;5070671;28;20466;-74
2021/10/10 07:05:26;;;;;;;9.75;5.97;;;;;;;;;;5071152;28;20036;-76
2021/10/10 07:07:53;;;;;;;13.32;7.03;;;;;;;;;;5071189;28;20511;-77
2021/10/10 07:10:18;;;;;;;13.80;8.40;;;;;;;;;;5070579;28;20032;-77
2021/10/10 07:12:44;;;;;;;9.93;5.03;;;;;;;;;;5073284;28;20481;-77
2021/10/10 07:15:12;;;;;;;9.77;7.32;;;;;;;;;;5075135;28;20167;-76
2021/10/10 07:17:37;;;;;;;10.57;6.65;;;;;;;;;;5074464;28;20062;-75
2021/10/10 07:20:17;;;;;;;10.52;5.40;;;;;;;;;;5067663;28;20029;-76
2021/10/10 07:22:56;;;;;;;8.85;5.90;;;;;;;;;;5053750;28;20069;-76
2021/10/10 07:25:22;;;;;;;11.30;5.50;;;;;;;;;;5052169;28;20029;-76
2021/10/10 07:27:47;;;;;;;9.13;5.78;;;;;;;;;;5054547;28;20041;-75
2021/10/10 07:30:14;;;;;;;7.22;5.18;;;;;;;;;;5052988;28;20055;-75
2021/10/10 07:32:40;;;;;;;10.93;6.47;;;;;;;;;;5053760;28;20498;-76
2021/10/10 07:35:07;;;;;;;11.48;6.22;;;;;;;;;;5063567;28;20068;-77
2021/10/10 07:37:33;;;;;;;15.75;6.30;;;;;;;;;;5072061;28;20103;-79
2021/10/10 07:39:58;;;;;;;7.95;5.15;;;;;;;;;;5073601;28;20135;-74
2021/10/10 07:42:24;;;;;;;6.88;4.65;;;;;;;;;;5071589;28;20041;-78
2021/10/10 07:44:52;;;;;;;9.98;6.28;;;;;;;;;;5068926;28;20812;-77
2021/10/10 07:49:53;;;;;;;10.50;6.97;;;;;;;;;;5070054;28;20029;-75
2021/10/10 07:52:19;;;;;;;11.40;6.63;;;;;;;;;;5071283;28;20044;-76
2021/10/10 07:54:46;;;;;;;11.07;6.53;;;;;;;;;;5071631;28;20115;-78
2021/10/10 07:57:12;;;;;;;9.77;6.00;;;;;;;;;;5038205;28;20473;-80
2021/10/10 07:59:38;;;;;;;11.35;7.07;;;;;;;;;;5073684;28;20112;-75
2021/10/10 08:02:04;;;;;;;12.60;7.90;;;;;;;;;;5068073;28;20032;-75
2021/10/10 08:04:29;;;;;;;11.95;6.03;;;;;;;;;;5068692;28;20123;-76
2021/10/10 08:06:55;;;;;;;11.00;5.35;;;;;;;;;;5073501;28;20028;-77
2021/10/10 08:09:21;;;;;;;7.05;4.15;;;;;;;;;;5055888;28;20074;-77
2021/10/10 08:11:47;;;;;;;10.32;7.78;;;;;;;;;;5060134;28;20571;-75
2021/10/10 08:14:13;;;;;;;9.15;4.32;;;;;;;;;;5072850;28;20064;-78
2021/10/10 08:16:40;;;;;;;8.93;5.07;;;;;;;;;;5072680;28;20570;-74
2021/10/10 08:19:07;;;;;;;8.90;5.80;;;;;;;;;;5054435;28;20063;-76
2021/10/10 08:21:33;;;;;;;8.77;5.75;;;;;;;;;;5072232;28;21639;-76
2021/10/10 08:24:01;;;;;;;6.68;4.38;;;;;;;;;;5070994;28;20128;-76
2021/10/10 08:26:27;;;;;;;10.00;5.03;;;;;;;;;;5055326;28;20035;-76
2021/10/10 08:28:53;;;;;;;7.30;4.63;;;;;;;;;;5050690;28;20418;-77
2021/10/10 08:31:18;;;;;;;9.60;4.70;;;;;;;;;;5052645;28;20035;-77
2021/10/10 08:33:43;;;;;;;10.07;5.55;;;;;;;;;;5051520;28;20056;-76
2021/10/10 08:36:09;;;;;;;10.00;5.55;;;;;;;;;;5051520;28;20150;-75
2021/10/10 08:38:37;;;;;;;5.38;3.78;;;;;;;;;;5052791;28;20025;-75
2021/10/10 08:41:03;;;;;;;10.88;6.60;;;;;;;;;;5056801;28;20033;-76
2021/10/10 08:43:31;;;;;;;11.35;6.28;;;;;;;;;;5060183;28;20083;-77
2021/10/10 08:46:01;;;;;;;12.23;6.15;;;;;;;;;;5040857;28;20033;-74
2021/10/10 08:48:27;;;;;;;11.93;6.10;;;;;;;;;;5052726;28;20398;-75
2021/10/10 08:50:55;;;;;;;10.75;5.53;;;;;;;;;;5052142;28;20052;-77
2021/10/10 08:53:22;;;;;;;10.63;5.78;;;;;;;;;;5051785;28;20041;-76
2021/10/10 08:55:48;;;;;;;10.77;5.72;;;;;;;;;;5032884;28;20647;-75
2021/10/10 08:58:17;;;;;;;9.23;5.35;;;;;;;;;;5063449;28;20095;-75
2021/10/10 09:00:51;;;;;;;4.32;3.45;;;;;;;;;;5071336;28;20064;-76
2021/10/10 09:03:18;;;;;;;9.43;5.80;;;;;;;;;;5070939;28;20138;-76
2021/10/10 09:05:45;;;;;;;11.00;7.32;;;;;;;;;;5072802;28;20028;-76
2021/10/10 09:08:10;;;;;;;13.90;6.40;;;;;;;;;;5071026;28;20946;-76
2021/10/10 09:10:38;;;;;;;9.30;5.30;;;;;;;;;;5071233;28;20027;-75
2021/10/10 09:13:14;;;;;;;10.90;5.78;;;;;;;;;;5071533;28;20182;-77
2021/10/10 09:15:47;;;;;;;5.78;3.95;;;;;;;;;;5070515;28;20053;-75
2021/10/10 09:18:13;;;;;;;14.07;5.95;;;;;;;;;;5070834;28;20036;-76
2021/10/10 09:20:41;;;;;;;15.00;6.43;;;;;;;;;;5070460;28;20123;-76
2021/10/10 09:23:27;;;;;;;8.23;4.75;;;;;;;;;;5055302;28;20159;-77
2021/10/10 09:25:56;;;;;;;17.70;5.47;;;;;;;;;;5051536;28;20033;-76
2021/10/10 09:28:24;;;;;;;12.77;5.70;;;;;;;;;;5035306;28;20036;-75
2021/10/10 09:30:59;;;;;;;12.43;6.20;;;;;;;;;;5052478;28;20037;-77
2021/10/10 09:33:46;;;;;;;7.97;5.05;;;;;;;;;;5052597;28;20083;-78
2021/10/10 09:36:21;;;;;;;7.63;4.10;;;;;;;;;;5051346;28;20111;-77
2021/10/10 09:38:56;;;;;;;9.57;5.55;;;;;;;;;;5050906;28;20153;-76
2021/10/10 09:41:31;;;;;;;9.27;5.68;;;;;;;;;;5032775;28;20047;-76
2021/10/10 09:43:57;;;;;;;6.15;5.10;;;;;;;;;;5033277;28;20447;-76
2021/10/10 09:46:24;;;;;;;8.45;5.43;;;;;;;;;;5032505;28;20140;-77
2021/10/10 09:48:49;;;;;;;8.85;4.63;;;;;;;;;;5051404;28;20040;-76
2021/10/10 09:51:31;;;;;;;7.75;4.65;;;;;;;;;;5050480;28;20144;-76
2021/10/10 09:54:04;;;;;;;10.20;5.65;;;;;;;;;;5033112;28;20040;-76
2021/10/10 09:56:30;;;;;;;14.00;6.22;;;;;;;;;;5050655;28;20045;-76
2021/10/10 09:58:55;;;;;;;14.90;6.32;;;;;;;;;;5068542;28;20040;-74
2021/10/10 10:01:23;;;;;;;9.60;6.32;;;;;;;;;;5070868;28;20478;-75
2021/10/10 10:04:07;;;;;;;8.60;5.82;;;;;;;;;;5071501;28;20081;-77
2021/10/10 10:06:37;;;;;;;10.57;5.22;;;;;;;;;;5070688;28;20493;-76
2021/10/10 10:09:08;;;;;;;8.05;4.35;;;;;;;;;;5070197;28;20489;-76
2021/10/10 10:11:42;;;;;;;6.05;4.13;;;;;;;;;;5071045;28;20037;-75
2021/10/10 10:14:10;;;;;;;8.23;4.75;;;;;;;;;;5070516;28;20064;-75
2021/10/10 10:16:44;;;;;;;7.38;4.93;;;;;;;;;;5070227;28;20056;-76
2021/10/10 10:19:13;;;;;;;7.60;4.68;;;;;;;;;;5070228;28;20563;-75
2021/10/10 10:21:39;;;;;;;7.13;3.25;;;;;;;;;;5070492;28;20063;-75
2021/10/10 10:24:10;;;;;;;10.63;5.45;;;;;;;;;;5068908;28;20060;-77
2021/10/10 10:26:35;;;;;;;9.07;5.72;;;;;;;;;;5070304;28;20036;-74
2021/10/10 10:29:07;;;;;;;8.45;5.28;;;;;;;;;;5069801;28;20127;-75
2021/10/10 10:31:35;;;;;;;9.65;4.32;;;;;;;;;;5070683;28;20111;-74
2021/10/10 10:34:17;;;;;;;18.58;5.53;;;;;;;;;;5070607;28;20063;-75
2021/10/10 10:37:11;;;;;;;9.68;5.40;;;;;;;;;;5070807;28;20052;-76
2021/10/10 10:39:48;;;;;;;11.05;5.25;;;;;;;;;;5070433;28;20643;-76
2021/10/10 10:42:22;;;;;;;7.72;4.80;;;;;;;;;;5052817;28;20047;-76
2021/10/10 10:44:48;;;;;;;8.20;3.92;;;;;;;;;;5071384;28;20033;-79
2021/10/10 10:47:21;;;;;;;9.98;4.15;;;;;;;;;;5069226;28;20039;-78
2021/10/10 10:49:56;;;;;;;5.40;3.78;;;;;;;;;;5070903;28;20071;-76
2021/10/10 10:52:35;;;;;;;7.57;4.45;;;;;;;;;;5070581;28;20036;-77
2021/10/10 10:55:16;;;;;;;3.95;3.05;;;;;;;;;;5070423;28;20040;-77
2021/10/10 10:57:48;;;;;;;6.22;3.15;;;;;;;;;;5070163;28;20489;-77
2021/10/10 11:00:27;;;;;;;7.80;3.80;;;;;;;;;;5051996;28;20527;-75
2021/10/10 11:02:57;;;;;;;4.93;3.10;;;;;;;;;;5069276;28;20478;-76
2021/10/10 11:05:31;;;;;;;;;;;;;;;;;;5070792;28;20033;-77
2021/10/10 11:08:01;;;;;;;;;;;;;;;;;;5051749;28;19923;-76
2021/10/10 11:10:27;;;;;;;4.60;3.08;;;;;;;;;;5069695;28;20433;-77
2021/10/10 11:13:23;;;;;;;4.55;3.15;;;;;;;;;;5069318;28;20174;-77
2021/10/10 11:16:07;;;;;;;4.30;2.45;;;;;;;;;;5026509;28;20040;-75
2021/10/10 11:18:36;;;;;;;5.80;3.15;;;;;;;;;;5052048;28;20094;-75
2021/10/10 11:21:07;;;;;;;5.32;3.13;;;;;;;;;;5070690;28;20028;-75
2021/10/10 11:23:34;;;;;;;9.98;3.28;;;;;;;;;;5069322;28;20037;-74
2021/10/10 11:26:09;;;;;;;9.38;3.50;;;;;;;;;;5070428;28;20032;-76
2021/10/10 11:28:50;;;;;;;5.45;3.75;;;;;;;;;;5070315;28;20040;-77
2021/10/10 11:31:24;;;;;;;4.70;3.30;;;;;;;;;;5069883;28;20032;-74
2021/10/10 11:34:09;;;;;;;9.63;4.07;;;;;;;;;;5070666;28;20040;-76
2021/10/10 11:36:45;;;;;;;6.07;4.03;;;;;;;;;;5069786;28;20063;-74
2021/10/10 11:39:23;;;;;;;6.28;3.80;;;;;;;;;;5052302;28;20037;-78
2021/10/10 11:42:11;;;;;;;7.13;4.00;;;;;;;;;;5070229;28;20036;-76
2021/10/10 11:44:44;;;;;;;6.22;3.38;;;;;;;;;;5068754;28;20033;-77
2021/10/10 11:47:24;;;;;;;6.97;3.67;;;;;;;;;;5051575;28;20036;-76
2021/10/10 11:49:57;;;;;;;7.45;4.63;;;;;;;;;;5068989;28;20078;-77
2021/10/10 11:55:19;;;;;;;7.63;5.43;;;;;;;;;;5069795;28;20045;-77
2021/10/10 11:57:52;;;;;;;6.18;3.10;;;;;;;;;;5068859;28;20037;-77
2021/10/10 12:00:19;;;;;;;8.35;4.93;;;;;;;;;;5071957;28;20111;-77
2021/10/10 12:02:47;;;;;;;4.90;3.20;;;;;;;;;;5072253;28;20037;-79
2021/10/10 12:05:17;;;;;;;8.50;4.55;;;;;;;;;;5055774;28;20032;-77
2021/10/10 12:07:44;;;;;;;6.20;4.65;;;;;;;;;;5072869;28;20032;-76
2021/10/10 12:10:16;;;;;;;8.15;4.28;;;;;;;;;;5073032;28;20115;-76
2021/10/10 12:12:41;;;;;;;6.53;3.83;;;;;;;;;;5072399;28;20044;-77
2021/10/10 12:15:09;;;;;;;6.07;4.38;;;;;;;;;;5071785;28;20397;-76
2021/10/10 12:17:40;;;;;;;6.30;3.65;;;;;;;;;;5072214;28;20028;-77
2021/10/10 12:20:15;;;;;;;9.48;4.82;;;;;;;;;;5071848;28;20051;-77
2021/10/10 12:22:45;;;;;;;9.15;4.70;;;;;;;;;;5072257;28;20124;-77
2021/10/10 12:25:28;;;;;;;9.75;5.22;;;;;;;;;;5054637;28;20396;-75
2021/10/10 12:28:04;;;;;;;7.00;3.70;;;;;;;;;;5072151;28;20032;-76
2021/10/10 12:30:36;;;;;;;;;;;;;;;;;;5072860;28;20040;-78
2021/10/10 12:33:22;;;;;;;7.45;5.25;;;;;;;;;;5053485;28;19928;-75
2021/10/10 12:36:05;;;;;;;8.05;4.00;;;;;;;;;;5071325;28;20056;-77
2021/10/10 12:38:50;;;;;;;8.80;4.72;;;;;;;;;;5054607;28;20067;-76
2021/10/10 12:41:28;;;;;;;9.57;4.32;;;;;;;;;;5071304;28;20050;-76
2021/10/10 12:44:09;;;;;;;9.45;5.00;;;;;;;;;;5071705;28;20043;-75
2021/10/10 12:46:54;;;;;;;7.45;4.93;;;;;;;;;;5053566;28;20090;-76
2021/10/10 12:49:38;;;;;;;10.00;6.57;;;;;;;;;;5072147;28;20044;-75
2021/10/10 12:52:11;;;;;;;9.93;4.70;;;;;;;;;;5071554;28;20566;-74
2021/10/10 12:54:39;;;;;;;6.78;4.20;;;;;;;;;;5053760;28;20040;-74
2021/10/10 12:57:10;;;;;;;5.75;3.75;;;;;;;;;;5072080;28;20173;-76
2021/10/10 12:59:39;;;;;;;8.10;5.38;;;;;;;;;;5072025;28;20388;-76
2021/10/10 13:02:09;;;;;;;7.28;5.25;;;;;;;;;;5071226;28;20032;-75
2021/10/10 13:04:36;;;;;;;;;;;;;;;;;;5071760;28;20502;-76
2021/10/10 13:07:02;;;;;;;12.80;5.72;;;;;;;;;;5071134;28;19916;-75
2021/10/10 13:09:30;;;;;;;10.20;5.10;;;;;;;;;;5069967;28;20024;-76
2021/10/10 13:11:57;;;;;;;5.57;4.45;;;;;;;;;;5072120;28;20036;-75
2021/10/10 13:14:23;;;;;;;7.55;4.57;;;;;;;;;;5070121;28;20040;-76
2021/10/10 13:16:50;;;;;;;6.57;4.90;;;;;;;;;;5071505;28;20031;-76
2021/10/10 13:19:16;;;;;;;7.65;5.63;;;;;;;;;;5070820;28;20037;-75
2021/10/10 13:21:42;;;;;;;9.20;5.43;;;;;;;;;;5070227;28;20041;-76
2021/10/10 13:24:08;;;;;;;13.20;7.43;;;;;;;;;;5070224;28;20394;-75
2021/10/10 13:26:35;;;;;;;8.23;5.18;;;;;;;;;;5070761;28;20040;-75
2021/10/10 13:29:01;;;;;;;11.20;5.80;;;;;;;;;;5070241;28;20062;-76
2021/10/10 13:31:26;;;;;;;10.90;6.07;;;;;;;;;;5071452;28;20036;-75
2021/10/10 13:33:52;;;;;;;13.88;7.07;;;;;;;;;;5070711;28;20032;-75
2021/10/10 13:36:17;;;;;;;16.17;6.30;;;;;;;;;;5069297;28;20059;-76
2021/10/10 13:38:43;;;;;;;12.00;6.05;;;;;;;;;;5071692;28;20028;-76
2021/10/10 13:41:09;;;;;;;11.35;6.65;;;;;;;;;;5069808;28;20378;-75
2021/10/10 13:43:34;;;;;;;10.43;5.20;;;;;;;;;;5069741;28;20181;-76
2021/10/10 13:46:00;;;;;;;7.70;4.38;;;;;;;;;;5071530;28;20032;-76
2021/10/10 13:48:30;;;;;;;5.32;4.68;;;;;;;;;;5073460;28;20037;-76
2021/10/10 13:50:57;;;;;;;8.30;4.43;;;;;;;;;;5076331;28;20059;-78
2021/10/10 13:53:23;;;;;;;9.95;5.72;;;;;;;;;;5073564;28;20460;-76
2021/10/10 13:55:48;;;;;;;9.10;5.50;;;;;;;;;;5059689;28;20085;-76
2021/10/10 13:58:16;;;;;;;13.63;5.75;;;;;;;;;;5078347;28;20025;-76
2021/10/10 14:00:43;;;;;;;10.63;5.88;;;;;;;;;;5080351;28;20063;-75
2021/10/10 14:03:13;;;;;;;12.35;5.65;;;;;;;;;;5076392;28;20489;-76
2021/10/10 14:05:40;;;;;;;10.77;4.97;;;;;;;;;;5070508;28;20474;-75
2021/10/10 14:08:06;;;;;;;9.75;5.93;;;;;;;;;;5070679;28;20489;-76
2021/10/10 14:10:32;;;;;;;11.43;5.80;;;;;;;;;;5070215;28;20032;-75
2021/10/10 14:12:58;;;;;;;14.15;6.32;;;;;;;;;;5069136;28;20170;-79
2021/10/10 14:15:23;;;;;;;11.70;7.40;;;;;;;;;;5069782;28;20397;-78
2021/10/10 14:17:49;;;;;;;10.00;5.53;;;;;;;;;;5069365;28;20032;-76
2021/10/10 14:20:14;;;;;;;10.70;6.55;;;;;;;;;;5050788;28;20032;-76
2021/10/10 14:22:40;;;;;;;11.85;6.75;;;;;;;;;;5070029;28;20047;-77
2021/10/10 14:25:06;;;;;;;8.55;5.72;;;;;;;;;;5069694;28;20079;-76
2021/10/10 14:27:33;;;;;;;9.57;5.95;;;;;;;;;;5069805;28;20040;-76
2021/10/10 14:29:59;;;;;;;10.50;5.35;;;;;;;;;;5070077;28;20508;-76
2021/10/10 14:32:24;;;;;;;8.15;4.35;;;;;;;;;;5069809;28;20028;-76
2021/10/10 14:34:49;;;;;;;7.65;4.43;;;;;;;;;;5069358;28;20121;-77
2021/10/10 14:37:15;;;;;;;10.10;5.20;;;;;;;;;;5069629;28;20036;-76
2021/10/10 14:39:40;;;;;;;10.45;4.85;;;;;;;;;;5070439;28;20059;-77
2021/10/10 14:42:14;;;;;;;6.47;4.88;;;;;;;;;;5068656;28;20032;-79
2021/10/10 14:49:31;;;;;;;8.13;4.88;;;;;;;;;;5069350;28;20058;-77
2021/10/10 14:51:58;;;;;;;7.70;4.40;;;;;;;;;;5069378;28;20067;-76